sensor_id;sensor_type;location;lat;lon;timestamp;temperature;humidity
43561;DHT22;32305;46.410;17.394;2022-12-10T00:01:11;20.90;44.20
43561;DHT22;32305;46.410;17.394;2022-12-10T00:03:38;20.90;44.20
43561;DHT22;32305;46.410;17.394;2022-12-10T00:06:09;20.90;44.20
43561;DHT22;32305;46.410;17.394;2022-12-10T00:08:36;20.90;44.20
43561;DHT22;32305;46.410;17.394;2022-12-10T00:11:05;20.90;44.20
43561;DHT22;32305;46.410;17.394;2022-12-10T00:13:33;20.90;44.20
43561;DHT22;32305;46.410;17.394;2022-12-10T00:16:02;20.90;44.20
43561;DHT22;32305;46.410;17.394;2022-12-10T00:18:30;20.80;44.20
43561;DHT22;32305;46.410;17.394;2022-12-10T00:20:57;20.80;44.20
43561;DHT22;32305;46.410;17.394;2022-12-10T00:23:24;20.80;44.20
43561;DHT22;32305;46.410;17.394;2022-12-10T00:25:51;20.80;44.20
43561;DHT22;32305;46.410;17.394;2022-12-10T00:28:18;20.80;44.20
43561;DHT22;32305;46.410;17.394;2022-12-10T00:30:45;20.80;44.20
43561;DHT22;32305;46.410;17.394;2022-12-10T00:33:12;20.80;44.20
43561;DHT22;32305;46.410;17.394;2022-12-10T00:35:39;20.80;44.20
43561;DHT22;32305;46.410;17.394;2022-12-10T00:38:06;20.80;44.20
43561;DHT22;32305;46.410;17.394;2022-12-10T00:40:33;20.80;44.20
43561;DHT22;32305;46.410;17.394;2022-12-10T00:43:00;20.80;44.20
43561;DHT22;32305;46.410;17.394;2022-12-10T00:45:27;20.80;44.20
43561;DHT22;32305;46.410;17.394;2022-12-10T00:47:54;20.80;44.20
43561;DHT22;32305;46.410;17.394;2022-12-10T00:50:21;20.80;44.30
43561;DHT22;32305;46.410;17.394;2022-12-10T00:52:48;20.80;44.20
43561;DHT22;32305;46.410;17.394;2022-12-10T00:55:15;20.80;44.30
43561;DHT22;32305;46.410;17.394;2022-12-10T00:57:42;20.80;44.30
43561;DHT22;32305;46.410;17.394;2022-12-10T01:00:10;20.80;44.30
43561;DHT22;32305;46.410;17.394;2022-12-10T01:02:37;20.80;44.30
43561;DHT22;32305;46.410;17.394;2022-12-10T01:05:04;20.80;44.30
43561;DHT22;32305;46.410;17.394;2022-12-10T01:07:31;20.80;44.30
43561;DHT22;32305;46.410;17.394;2022-12-10T01:09:58;20.80;44.30
43561;DHT22;32305;46.410;17.394;2022-12-10T01:12:25;20.70;44.30
43561;DHT22;32305;46.410;17.394;2022-12-10T01:14:52;20.80;44.30
43561;DHT22;32305;46.410;17.394;2022-12-10T01:17:19;20.70;44.30
43561;DHT22;32305;46.410;17.394;2022-12-10T01:19:48;20.80;44.30
43561;DHT22;32305;46.410;17.394;2022-12-10T01:22:15;20.80;44.30
43561;DHT22;32305;46.410;17.394;2022-12-10T01:24:42;20.80;44.30
43561;DHT22;32305;46.410;17.394;2022-12-10T01:27:09;20.80;44.30
43561;DHT22;32305;46.410;17.394;2022-12-10T01:29:36;20.70;44.30
43561;DHT22;32305;46.410;17.394;2022-12-10T01:32:03;20.80;44.40
43561;DHT22;32305;46.410;17.394;2022-12-10T01:34:30;20.80;44.40
43561;DHT22;32305;46.410;17.394;2022-12-10T01:36:57;20.70;44.30
43561;DHT22;32305;46.410;17.394;2022-12-10T01:39:24;20.80;44.40
43561;DHT22;32305;46.410;17.394;2022-12-10T01:41:54;20.70;44.30
43561;DHT22;32305;46.410;17.394;2022-12-10T01:47:27;20.80;44.40
43561;DHT22;32305;46.410;17.394;2022-12-10T01:49:54;20.80;44.40
43561;DHT22;32305;46.410;17.394;2022-12-10T01:52:21;20.80;44.40
43561;DHT22;32305;46.410;17.394;2022-12-10T01:54:48;20.80;44.40
43561;DHT22;32305;46.410;17.394;2022-12-10T01:57:19;20.80;44.40
43561;DHT22;32305;46.410;17.394;2022-12-10T01:59:50;20.70;44.40
43561;DHT22;32305;46.410;17.394;2022-12-10T02:02:42;20.70;44.40
43561;DHT22;32305;46.410;17.394;2022-12-10T02:08:32;20.80;44.40
43561;DHT22;32305;46.410;17.394;2022-12-10T02:11:13;20.80;44.40
43561;DHT22;32305;46.410;17.394;2022-12-10T02:14:09;20.80;44.40
43561;DHT22;32305;46.410;17.394;2022-12-10T02:16:49;20.70;44.40
43561;DHT22;32305;46.410;17.394;2022-12-10T02:22:17;20.70;44.40
43561;DHT22;32305;46.410;17.394;2022-12-10T02:24:47;20.70;44.40
43561;DHT22;32305;46.410;17.394;2022-12-10T02:27:33;20.70;44.40
43561;DHT22;32305;46.410;17.394;2022-12-10T02:30:02;20.70;44.40
43561;DHT22;32305;46.410;17.394;2022-12-10T02:32:38;20.70;44.40
43561;DHT22;32305;46.410;17.394;2022-12-10T02:35:23;20.70;44.40
43561;DHT22;32305;46.410;17.394;2022-12-10T02:37:59;20.70;44.40
43561;DHT22;32305;46.410;17.394;2022-12-10T02:40:32;20.70;44.50
43561;DHT22;32305;46.410;17.394;2022-12-10T02:43:00;20.70;44.50
43561;DHT22;32305;46.410;17.394;2022-12-10T02:45:29;20.70;44.50
43561;DHT22;32305;46.410;17.394;2022-12-10T02:47:59;20.70;44.50
43561;DHT22;32305;46.410;17.394;2022-12-10T02:50:27;20.70;44.40
43561;DHT22;32305;46.410;17.394;2022-12-10T02:52:55;20.70;44.50
43561;DHT22;32305;46.410;17.394;2022-12-10T02:55:22;20.70;44.50
43561;DHT22;32305;46.410;17.394;2022-12-10T02:58:19;20.60;44.40
43561;DHT22;32305;46.410;17.394;2022-12-10T03:00:58;20.60;44.40
43561;DHT22;32305;46.410;17.394;2022-12-10T03:03:41;20.60;44.40
43561;DHT22;32305;46.410;17.394;2022-12-10T03:06:32;20.60;44.40
43561;DHT22;32305;46.410;17.394;2022-12-10T03:09:07;20.60;44.50
43561;DHT22;32305;46.410;17.394;2022-12-10T03:11:35;20.60;44.50
43561;DHT22;32305;46.410;17.394;2022-12-10T03:14:14;20.60;44.50
43561;DHT22;32305;46.410;17.394;2022-12-10T03:16:45;20.60;44.50
43561;DHT22;32305;46.410;17.394;2022-12-10T03:19:17;20.60;44.50
43561;DHT22;32305;46.410;17.394;2022-12-10T03:21:47;20.60;44.50
43561;DHT22;32305;46.410;17.394;2022-12-10T03:24:16;20.60;44.50
43561;DHT22;32305;46.410;17.394;2022-12-10T03:26:46;20.60;44.50
43561;DHT22;32305;46.410;17.394;2022-12-10T03:29:19;20.60;44.60
43561;DHT22;32305;46.410;17.394;2022-12-10T03:31:49;20.60;44.60
43561;DHT22;32305;46.410;17.394;2022-12-10T03:34:16;20.60;44.60
43561;DHT22;32305;46.410;17.394;2022-12-10T03:36:44;20.60;44.60
43561;DHT22;32305;46.410;17.394;2022-12-10T03:39:13;20.60;44.50
43561;DHT22;32305;46.410;17.394;2022-12-10T03:41:40;20.60;44.60
43561;DHT22;32305;46.410;17.394;2022-12-10T03:44:07;20.60;44.50
43561;DHT22;32305;46.410;17.394;2022-12-10T03:46:34;20.60;44.50
43561;DHT22;32305;46.410;17.394;2022-12-10T03:49:02;20.60;44.60
43561;DHT22;32305;46.410;17.394;2022-12-10T03:51:29;20.50;44.50
43561;DHT22;32305;46.410;17.394;2022-12-10T03:53:56;20.60;44.60
43561;DHT22;32305;46.410;17.394;2022-12-10T03:56:23;20.60;44.60
43561;DHT22;32305;46.410;17.394;2022-12-10T03:58:50;20.60;44.60
43561;DHT22;32305;46.410;17.394;2022-12-10T04:01:17;20.60;44.70
43561;DHT22;32305;46.410;17.394;2022-12-10T04:03:44;20.50;44.60
43561;DHT22;32305;46.410;17.394;2022-12-10T04:06:15;20.50;45.10
43561;DHT22;32305;46.410;17.394;2022-12-10T04:08:43;20.50;44.60
43561;DHT22;32305;46.410;17.394;2022-12-10T04:11:12;20.50;44.60
43561;DHT22;32305;46.410;17.394;2022-12-10T04:13:40;20.50;44.60
43561;DHT22;32305;46.410;17.394;2022-12-10T04:16:28;20.60;44.60
43561;DHT22;32305;46.410;17.394;2022-12-10T04:18:59;20.50;44.60
43561;DHT22;32305;46.410;17.394;2022-12-10T04:21:28;20.50;44.60
43561;DHT22;32305;46.410;17.394;2022-12-10T04:24:18;20.50;44.60
43561;DHT22;32305;46.410;17.394;2022-12-10T04:27:09;20.50;44.60
43561;DHT22;32305;46.410;17.394;2022-12-10T04:29:37;20.50;44.60
43561;DHT22;32305;46.410;17.394;2022-12-10T04:32:04;20.50;44.60
43561;DHT22;32305;46.410;17.394;2022-12-10T04:34:31;20.50;44.60
43561;DHT22;32305;46.410;17.394;2022-12-10T04:36:59;20.50;44.60
43561;DHT22;32305;46.410;17.394;2022-12-10T04:39:26;20.60;44.70
43561;DHT22;32305;46.410;17.394;2022-12-10T04:41:54;20.50;44.60
43561;DHT22;32305;46.410;17.394;2022-12-10T04:44:21;20.50;44.60
43561;DHT22;32305;46.410;17.394;2022-12-10T04:46:48;20.50;44.60
43561;DHT22;32305;46.410;17.394;2022-12-10T04:49:16;20.50;44.60
43561;DHT22;32305;46.410;17.394;2022-12-10T04:51:43;20.50;44.60
43561;DHT22;32305;46.410;17.394;2022-12-10T04:54:11;20.50;44.60
43561;DHT22;32305;46.410;17.394;2022-12-10T04:56:39;20.50;44.60
43561;DHT22;32305;46.410;17.394;2022-12-10T04:59:07;20.50;44.60
43561;DHT22;32305;46.410;17.394;2022-12-10T05:01:34;20.50;44.60
43561;DHT22;32305;46.410;17.394;2022-12-10T05:04:03;20.50;44.60
43561;DHT22;32305;46.410;17.394;2022-12-10T05:06:31;20.50;44.60
43561;DHT22;32305;46.410;17.394;2022-12-10T05:08:59;20.50;44.60
43561;DHT22;32305;46.410;17.394;2022-12-10T05:11:28;20.50;44.60
43561;DHT22;32305;46.410;17.394;2022-12-10T05:13:56;20.50;44.60
43561;DHT22;32305;46.410;17.394;2022-12-10T05:16:26;20.50;44.60
43561;DHT22;32305;46.410;17.394;2022-12-10T05:18:54;20.50;44.60
43561;DHT22;32305;46.410;17.394;2022-12-10T05:21:23;20.50;44.60
43561;DHT22;32305;46.410;17.394;2022-12-10T05:23:51;20.50;44.60
43561;DHT22;32305;46.410;17.394;2022-12-10T05:26:23;20.50;44.60
43561;DHT22;32305;46.410;17.394;2022-12-10T05:28:55;20.50;44.60
43561;DHT22;32305;46.410;17.394;2022-12-10T05:31:25;20.50;44.60
43561;DHT22;32305;46.410;17.394;2022-12-10T05:33:53;20.50;44.60
43561;DHT22;32305;46.410;17.394;2022-12-10T05:36:23;20.40;44.50
43561;DHT22;32305;46.410;17.394;2022-12-10T05:38:52;20.40;44.50
43561;DHT22;32305;46.410;17.394;2022-12-10T05:41:23;20.40;44.30
43561;DHT22;32305;46.410;17.394;2022-12-10T05:43:50;20.40;44.80
43561;DHT22;32305;46.410;17.394;2022-12-10T05:46:27;20.40;44.20
43561;DHT22;32305;46.410;17.394;2022-12-10T05:48:55;20.40;44.10
43561;DHT22;32305;46.410;17.394;2022-12-10T05:51:24;20.40;44.10
43561;DHT22;32305;46.410;17.394;2022-12-10T05:53:53;20.40;44.10
43561;DHT22;32305;46.410;17.394;2022-12-10T05:56:22;20.40;44.20
43561;DHT22;32305;46.410;17.394;2022-12-10T05:58:53;20.40;44.10
43561;DHT22;32305;46.410;17.394;2022-12-10T06:01:24;20.40;44.10
43561;DHT22;32305;46.410;17.394;2022-12-10T06:03:51;20.40;44.10
43561;DHT22;32305;46.410;17.394;2022-12-10T06:06:23;20.40;44.20
43561;DHT22;32305;46.410;17.394;2022-12-10T06:08:51;20.40;44.10
43561;DHT22;32305;46.410;17.394;2022-12-10T06:11:18;20.40;44.10
43561;DHT22;32305;46.410;17.394;2022-12-10T06:13:46;20.40;44.00
43561;DHT22;32305;46.410;17.394;2022-12-10T06:16:20;20.50;44.00
43561;DHT22;32305;46.410;17.394;2022-12-10T06:18:48;20.50;43.90
43561;DHT22;32305;46.410;17.394;2022-12-10T06:21:16;20.50;43.90
43561;DHT22;32305;46.410;17.394;2022-12-10T06:23:44;20.50;43.90
43561;DHT22;32305;46.410;17.394;2022-12-10T06:26:14;20.50;43.80
43561;DHT22;32305;46.410;17.394;2022-12-10T06:28:43;20.50;43.70
43561;DHT22;32305;46.410;17.394;2022-12-10T06:31:11;20.50;43.70
43561;DHT22;32305;46.410;17.394;2022-12-10T06:33:38;20.60;43.70
43561;DHT22;32305;46.410;17.394;2022-12-10T06:36:06;20.60;43.60
43561;DHT22;32305;46.410;17.394;2022-12-10T06:38:34;20.60;43.60
43561;DHT22;32305;46.410;17.394;2022-12-10T06:41:07;20.60;43.50
43561;DHT22;32305;46.410;17.394;2022-12-10T06:43:35;20.60;43.50
43561;DHT22;32305;46.410;17.394;2022-12-10T06:46:07;20.60;43.40
43561;DHT22;32305;46.410;17.394;2022-12-10T06:48:35;20.60;43.40
43561;DHT22;32305;46.410;17.394;2022-12-10T06:51:03;20.60;43.30
43561;DHT22;32305;46.410;17.394;2022-12-10T06:53:32;20.70;43.40
43561;DHT22;32305;46.410;17.394;2022-12-10T06:56:01;20.70;43.30
43561;DHT22;32305;46.410;17.394;2022-12-10T06:58:29;20.70;43.20
43561;DHT22;32305;46.410;17.394;2022-12-10T07:01:12;20.70;43.20
43561;DHT22;32305;46.410;17.394;2022-12-10T07:03:39;20.70;43.10
43561;DHT22;32305;46.410;17.394;2022-12-10T07:06:08;20.80;43.10
43561;DHT22;32305;46.410;17.394;2022-12-10T07:08:36;20.70;42.90
43561;DHT22;32305;46.410;17.394;2022-12-10T07:11:05;20.70;42.90
43561;DHT22;32305;46.410;17.394;2022-12-10T07:13:32;20.80;42.90
43561;DHT22;32305;46.410;17.394;2022-12-10T07:16:00;20.80;42.80
43561;DHT22;32305;46.410;17.394;2022-12-10T07:18:27;20.80;42.80
43561;DHT22;32305;46.410;17.394;2022-12-10T07:20:54;20.80;42.70
43561;DHT22;32305;46.410;17.394;2022-12-10T07:23:21;20.80;42.70
43561;DHT22;32305;46.410;17.394;2022-12-10T07:25:48;20.80;42.60
43561;DHT22;32305;46.410;17.394;2022-12-10T07:28:15;20.80;42.60
43561;DHT22;32305;46.410;17.394;2022-12-10T07:30:42;20.80;42.60
43561;DHT22;32305;46.410;17.394;2022-12-10T07:33:09;20.80;42.50
43561;DHT22;32305;46.410;17.394;2022-12-10T07:35:38;20.90;42.50
43561;DHT22;32305;46.410;17.394;2022-12-10T07:38:14;20.90;42.50
43561;DHT22;32305;46.410;17.394;2022-12-10T07:40:41;20.80;42.40
43561;DHT22;32305;46.410;17.394;2022-12-10T07:43:08;20.90;42.40
43561;DHT22;32305;46.410;17.394;2022-12-10T07:45:35;20.90;42.40
43561;DHT22;32305;46.410;17.394;2022-12-10T07:48:02;20.90;42.30
43561;DHT22;32305;46.410;17.394;2022-12-10T07:50:30;20.90;42.30
43561;DHT22;32305;46.410;17.394;2022-12-10T07:52:57;20.90;42.30
43561;DHT22;32305;46.410;17.394;2022-12-10T07:55:24;20.90;42.20
43561;DHT22;32305;46.410;17.394;2022-12-10T07:57:51;20.90;42.20
43561;DHT22;32305;46.410;17.394;2022-12-10T08:00:18;20.90;42.10
43561;DHT22;32305;46.410;17.394;2022-12-10T08:02:45;20.90;42.10
43561;DHT22;32305;46.410;17.394;2022-12-10T08:05:12;20.90;42.10
43561;DHT22;32305;46.410;17.394;2022-12-10T08:07:39;20.90;42.30
43561;DHT22;32305;46.410;17.394;2022-12-10T08:10:07;21.00;42.10
43561;DHT22;32305;46.410;17.394;2022-12-10T08:12:35;20.90;42.00
43561;DHT22;32305;46.410;17.394;2022-12-10T08:15:02;20.90;42.00
43561;DHT22;32305;46.410;17.394;2022-12-10T08:17:29;20.90;42.00
43561;DHT22;32305;46.410;17.394;2022-12-10T08:19:56;20.90;42.50
43561;DHT22;32305;46.410;17.394;2022-12-10T08:22:23;21.00;41.90
43561;DHT22;32305;46.410;17.394;2022-12-10T08:24:50;21.00;41.90
43561;DHT22;32305;46.410;17.394;2022-12-10T08:27:17;21.00;41.90
43561;DHT22;32305;46.410;17.394;2022-12-10T08:29:44;21.00;41.90
43561;DHT22;32305;46.410;17.394;2022-12-10T08:32:11;21.00;41.90
43561;DHT22;32305;46.410;17.394;2022-12-10T08:34:38;21.00;41.80
43561;DHT22;32305;46.410;17.394;2022-12-10T08:37:05;21.00;41.80
43561;DHT22;32305;46.410;17.394;2022-12-10T08:39:38;21.00;41.70
43561;DHT22;32305;46.410;17.394;2022-12-10T08:42:05;21.00;41.70
43561;DHT22;32305;46.410;17.394;2022-12-10T08:44:32;21.00;41.70
43561;DHT22;32305;46.410;17.394;2022-12-10T08:46:59;21.00;41.70
43561;DHT22;32305;46.410;17.394;2022-12-10T08:49:26;21.00;41.60
43561;DHT22;32305;46.410;17.394;2022-12-10T08:51:53;21.00;41.60
43561;DHT22;32305;46.410;17.394;2022-12-10T08:54:20;21.00;41.60
43561;DHT22;32305;46.410;17.394;2022-12-10T08:56:50;21.10;41.60
43561;DHT22;32305;46.410;17.394;2022-12-10T08:59:18;21.10;41.60
43561;DHT22;32305;46.410;17.394;2022-12-10T09:01:45;21.10;41.60
43561;DHT22;32305;46.410;17.394;2022-12-10T09:04:12;21.10;41.50
43561;DHT22;32305;46.410;17.394;2022-12-10T09:06:40;21.10;41.50
43561;DHT22;32305;46.410;17.394;2022-12-10T09:09:07;21.10;41.50
43561;DHT22;32305;46.410;17.394;2022-12-10T09:11:34;21.10;41.40
43561;DHT22;32305;46.410;17.394;2022-12-10T09:14:02;21.10;41.40
43561;DHT22;32305;46.410;17.394;2022-12-10T09:16:37;21.10;41.40
43561;DHT22;32305;46.410;17.394;2022-12-10T09:19:06;21.10;41.30
43561;DHT22;32305;46.410;17.394;2022-12-10T09:21:33;21.10;41.30
43561;DHT22;32305;46.410;17.394;2022-12-10T09:24:00;21.10;41.30
43561;DHT22;32305;46.410;17.394;2022-12-10T09:26:27;21.10;41.80
43561;DHT22;32305;46.410;17.394;2022-12-10T09:28:55;21.10;41.20
43561;DHT22;32305;46.410;17.394;2022-12-10T09:31:24;21.20;41.20
43561;DHT22;32305;46.410;17.394;2022-12-10T09:33:53;21.10;41.10
43561;DHT22;32305;46.410;17.394;2022-12-10T09:36:21;21.10;41.10
43561;DHT22;32305;46.410;17.394;2022-12-10T09:38:49;21.10;41.10
43561;DHT22;32305;46.410;17.394;2022-12-10T09:41:46;21.10;41.10
43561;DHT22;32305;46.410;17.394;2022-12-10T09:44:33;21.10;41.10
43561;DHT22;32305;46.410;17.394;2022-12-10T09:47:07;21.10;41.10
43561;DHT22;32305;46.410;17.394;2022-12-10T09:49:58;21.10;41.10
43561;DHT22;32305;46.410;17.394;2022-12-10T09:52:34;21.10;41.10
43561;DHT22;32305;46.410;17.394;2022-12-10T09:55:08;21.10;41.10
43561;DHT22;32305;46.410;17.394;2022-12-10T09:57:46;21.10;41.00
43561;DHT22;32305;46.410;17.394;2022-12-10T10:00:32;21.10;41.00
43561;DHT22;32305;46.410;17.394;2022-12-10T10:03:01;21.10;41.00
43561;DHT22;32305;46.410;17.394;2022-12-10T10:05:31;21.10;41.00
43561;DHT22;32305;46.410;17.394;2022-12-10T10:08:04;21.10;41.00
43561;DHT22;32305;46.410;17.394;2022-12-10T10:10:35;21.10;41.00
43561;DHT22;32305;46.410;17.394;2022-12-10T10:13:26;21.10;40.90
43561;DHT22;32305;46.410;17.394;2022-12-10T10:15:52;21.10;40.90
43561;DHT22;32305;46.410;17.394;2022-12-10T10:18:36;21.10;40.90
43561;DHT22;32305;46.410;17.394;2022-12-10T10:21:28;21.00;40.90
43561;DHT22;32305;46.410;17.394;2022-12-10T10:23:57;21.10;40.90
43561;DHT22;32305;46.410;17.394;2022-12-10T10:26:25;21.10;40.90
43561;DHT22;32305;46.410;17.394;2022-12-10T10:28:57;21.10;40.90
43561;DHT22;32305;46.410;17.394;2022-12-10T10:31:28;21.10;40.90
43561;DHT22;32305;46.410;17.394;2022-12-10T10:34:02;21.10;40.90
43561;DHT22;32305;46.410;17.394;2022-12-10T10:36:31;21.10;40.90
43561;DHT22;32305;46.410;17.394;2022-12-10T10:39:26;21.10;40.90
43561;DHT22;32305;46.410;17.394;2022-12-10T10:41:54;21.10;40.90
43561;DHT22;32305;46.410;17.394;2022-12-10T10:44:27;21.10;40.80
43561;DHT22;32305;46.410;17.394;2022-12-10T10:46:55;21.10;40.80
43561;DHT22;32305;46.410;17.394;2022-12-10T10:49:30;21.10;40.80
43561;DHT22;32305;46.410;17.394;2022-12-10T10:52:01;21.10;40.80
43561;DHT22;32305;46.410;17.394;2022-12-10T10:54:38;21.10;40.80
43561;DHT22;32305;46.410;17.394;2022-12-10T10:57:23;21.10;40.80
43561;DHT22;32305;46.410;17.394;2022-12-10T10:59:56;21.10;40.80
43561;DHT22;32305;46.410;17.394;2022-12-10T11:02:41;21.10;40.80
43561;DHT22;32305;46.410;17.394;2022-12-10T11:05:17;21.10;40.80
43561;DHT22;32305;46.410;17.394;2022-12-10T11:07:44;21.10;40.80
43561;DHT22;32305;46.410;17.394;2022-12-10T11:10:20;21.10;40.80
43561;DHT22;32305;46.410;17.394;2022-12-10T11:13:03;21.10;40.80
43561;DHT22;32305;46.410;17.394;2022-12-10T11:15:37;21.10;40.80
43561;DHT22;32305;46.410;17.394;2022-12-10T11:18:32;21.10;40.80
43561;DHT22;32305;46.410;17.394;2022-12-10T11:21:19;21.20;40.90
43561;DHT22;32305;46.410;17.394;2022-12-10T11:23:56;21.10;40.70
43561;DHT22;32305;46.410;17.394;2022-12-10T11:26:50;21.20;40.80
43561;DHT22;32305;46.410;17.394;2022-12-10T11:29:42;21.20;40.70
43561;DHT22;32305;46.410;17.394;2022-12-10T11:35:36;21.20;40.60
43561;DHT22;32305;46.410;17.394;2022-12-10T11:38:30;21.20;40.60
43561;DHT22;32305;46.410;17.394;2022-12-10T11:41:07;21.20;40.60
43561;DHT22;32305;46.410;17.394;2022-12-10T11:44:13;21.30;40.70
43561;DHT22;32305;46.410;17.394;2022-12-10T11:46:57;21.30;40.60
43561;DHT22;32305;46.410;17.394;2022-12-10T11:52:51;21.30;40.60
43561;DHT22;32305;46.410;17.394;2022-12-10T11:55:42;21.30;40.50
43561;DHT22;32305;46.410;17.394;2022-12-10T12:01:43;21.30;40.50
43561;DHT22;32305;46.410;17.394;2022-12-10T12:04:35;21.30;40.40
43561;DHT22;32305;46.410;17.394;2022-12-10T12:07:33;21.30;40.40
43561;DHT22;32305;46.410;17.394;2022-12-10T12:10:31;21.30;40.40
43561;DHT22;32305;46.410;17.394;2022-12-10T12:13:24;21.30;40.40
43561;DHT22;32305;46.410;17.394;2022-12-10T12:16:06;21.30;40.30
43561;DHT22;32305;46.410;17.394;2022-12-10T12:18:42;21.30;40.30
43561;DHT22;32305;46.410;17.394;2022-12-10T12:21:13;21.30;40.30
43561;DHT22;32305;46.410;17.394;2022-12-10T12:24:06;21.30;40.30
43561;DHT22;32305;46.410;17.394;2022-12-10T12:26:54;21.30;40.30
43561;DHT22;32305;46.410;17.394;2022-12-10T12:29:44;21.30;40.30
43561;DHT22;32305;46.410;17.394;2022-12-10T12:32:20;21.30;40.30
43561;DHT22;32305;46.410;17.394;2022-12-10T12:34:59;21.30;40.20
43561;DHT22;32305;46.410;17.394;2022-12-10T12:37:41;21.30;40.30
43561;DHT22;32305;46.410;17.394;2022-12-10T12:40:15;21.30;40.20
43561;DHT22;32305;46.410;17.394;2022-12-10T12:42:58;21.40;40.30
43561;DHT22;32305;46.410;17.394;2022-12-10T12:45:43;21.40;40.30
43561;DHT22;32305;46.410;17.394;2022-12-10T12:48:20;21.40;40.30
43561;DHT22;32305;46.410;17.394;2022-12-10T12:50:55;21.40;40.30
43561;DHT22;32305;46.410;17.394;2022-12-10T12:53:25;21.40;40.20
43561;DHT22;32305;46.410;17.394;2022-12-10T12:56:25;21.40;40.20
43561;DHT22;32305;46.410;17.394;2022-12-10T12:59:35;21.40;40.20
43561;DHT22;32305;46.410;17.394;2022-12-10T13:02:45;21.40;40.20
43561;DHT22;32305;46.410;17.394;2022-12-10T13:05:30;21.40;40.10
43561;DHT22;32305;46.410;17.394;2022-12-10T13:08:23;21.40;40.20
43561;DHT22;32305;46.410;17.394;2022-12-10T13:10:58;21.40;40.10
43561;DHT22;32305;46.410;17.394;2022-12-10T13:13:35;21.40;40.10
43561;DHT22;32305;46.410;17.394;2022-12-10T13:19:25;21.40;40.60
43561;DHT22;32305;46.410;17.394;2022-12-10T13:22:09;21.40;40.10
43561;DHT22;32305;46.410;17.394;2022-12-10T13:24:47;21.40;40.10
43561;DHT22;32305;46.410;17.394;2022-12-10T13:27:32;21.40;40.00
43561;DHT22;32305;46.410;17.394;2022-12-10T13:30:30;21.50;40.10
43561;DHT22;32305;46.410;17.394;2022-12-10T13:33:12;21.40;40.00
43561;DHT22;32305;46.410;17.394;2022-12-10T13:35:57;21.40;40.00
43561;DHT22;32305;46.410;17.394;2022-12-10T13:38:40;21.50;40.00
43561;DHT22;32305;46.410;17.394;2022-12-10T13:41:08;21.50;40.50
43561;DHT22;32305;46.410;17.394;2022-12-10T13:43:58;21.50;40.00
43561;DHT22;32305;46.410;17.394;2022-12-10T13:46:57;21.50;39.90
43561;DHT22;32305;46.410;17.394;2022-12-10T13:49:30;21.50;39.90
43561;DHT22;32305;46.410;17.394;2022-12-10T13:52:06;21.50;39.90
43561;DHT22;32305;46.410;17.394;2022-12-10T13:58:00;21.50;39.90
43561;DHT22;32305;46.410;17.394;2022-12-10T14:00:38;21.50;39.80
43561;DHT22;32305;46.410;17.394;2022-12-10T14:03:34;21.50;39.80
43561;DHT22;32305;46.410;17.394;2022-12-10T14:06:17;21.50;39.80
43561;DHT22;32305;46.410;17.394;2022-12-10T14:09:11;21.50;39.80
43561;DHT22;32305;46.410;17.394;2022-12-10T14:11:49;21.50;39.80
43561;DHT22;32305;46.410;17.394;2022-12-10T14:14:30;21.50;39.80
43561;DHT22;32305;46.410;17.394;2022-12-10T14:17:05;21.50;39.70
43561;DHT22;32305;46.410;17.394;2022-12-10T14:19:33;21.50;39.70
43561;DHT22;32305;46.410;17.394;2022-12-10T14:22:06;21.50;39.70
43561;DHT22;32305;46.410;17.394;2022-12-10T14:24:38;21.50;39.70
43561;DHT22;32305;46.410;17.394;2022-12-10T14:27:20;21.50;39.70
43561;DHT22;32305;46.410;17.394;2022-12-10T14:29:57;21.50;39.70
43561;DHT22;32305;46.410;17.394;2022-12-10T14:32:33;21.50;39.70
43561;DHT22;32305;46.410;17.394;2022-12-10T14:35:03;21.50;39.60
43561;DHT22;32305;46.410;17.394;2022-12-10T14:37:33;21.50;39.60
43561;DHT22;32305;46.410;17.394;2022-12-10T14:40:01;21.50;39.60
43561;DHT22;32305;46.410;17.394;2022-12-10T14:42:31;21.50;39.60
43561;DHT22;32305;46.410;17.394;2022-12-10T14:45:00;21.50;39.70
43561;DHT22;32305;46.410;17.394;2022-12-10T14:47:32;21.50;39.70
43561;DHT22;32305;46.410;17.394;2022-12-10T14:50:00;21.50;39.70
43561;DHT22;32305;46.410;17.394;2022-12-10T14:52:33;21.50;39.60
43561;DHT22;32305;46.410;17.394;2022-12-10T14:55:02;21.50;39.70
43561;DHT22;32305;46.410;17.394;2022-12-10T14:57:34;21.50;39.70
43561;DHT22;32305;46.410;17.394;2022-12-10T15:00:15;21.50;39.70
43561;DHT22;32305;46.410;17.394;2022-12-10T15:02:51;21.50;39.70
43561;DHT22;32305;46.410;17.394;2022-12-10T15:05:23;21.50;39.70
43561;DHT22;32305;46.410;17.394;2022-12-10T15:08:13;21.50;39.70
43561;DHT22;32305;46.410;17.394;2022-12-10T15:10:42;21.50;39.70
43561;DHT22;32305;46.410;17.394;2022-12-10T15:13:37;21.50;39.70
43561;DHT22;32305;46.410;17.394;2022-12-10T15:16:06;21.60;39.60
43561;DHT22;32305;46.410;17.394;2022-12-10T15:18:42;21.60;39.60
43561;DHT22;32305;46.410;17.394;2022-12-10T15:21:13;21.60;39.60
43561;DHT22;32305;46.410;17.394;2022-12-10T15:23:40;21.60;39.60
43561;DHT22;32305;46.410;17.394;2022-12-10T15:26:23;21.60;39.60
43561;DHT22;32305;46.410;17.394;2022-12-10T15:28:53;21.60;39.60
43561;DHT22;32305;46.410;17.394;2022-12-10T15:31:48;21.60;39.70
43561;DHT22;32305;46.410;17.394;2022-12-10T15:34:16;21.50;39.70
43561;DHT22;32305;46.410;17.394;2022-12-10T15:36:56;21.50;39.70
43561;DHT22;32305;46.410;17.394;2022-12-10T15:39:29;21.50;39.80
43561;DHT22;32305;46.410;17.394;2022-12-10T15:41:58;21.50;39.90
43561;DHT22;32305;46.410;17.394;2022-12-10T15:44:36;21.50;40.00
43561;DHT22;32305;46.410;17.394;2022-12-10T15:47:21;21.40;40.00
43561;DHT22;32305;46.410;17.394;2022-12-10T15:49:50;21.40;40.10
43561;DHT22;32305;46.410;17.394;2022-12-10T15:52:23;21.40;40.10
43561;DHT22;32305;46.410;17.394;2022-12-10T15:54:52;21.30;40.20
43561;DHT22;32305;46.410;17.394;2022-12-10T15:57:24;21.30;40.20
43561;DHT22;32305;46.410;17.394;2022-12-10T15:59:54;21.30;40.30
43561;DHT22;32305;46.410;17.394;2022-12-10T16:02:44;21.30;40.40
43561;DHT22;32305;46.410;17.394;2022-12-10T16:05:15;21.20;40.40
43561;DHT22;32305;46.410;17.394;2022-12-10T16:07:43;21.20;40.40
43561;DHT22;32305;46.410;17.394;2022-12-10T16:10:12;21.20;40.50
43561;DHT22;32305;46.410;17.394;2022-12-10T16:12:39;21.20;40.50
43561;DHT22;32305;46.410;17.394;2022-12-10T16:15:14;21.10;40.50
43561;DHT22;32305;46.410;17.394;2022-12-10T16:17:42;21.10;40.60